sensor_id;sensor_type;location;lat;lon;timestamp;temperature;humidity
68439;SHT31;55421;51.600;5.718;2022-10-26T00:03:37;12.43;81.20
68439;SHT31;55421;51.600;5.718;2022-10-26T00:06:09;12.43;81.20
68439;SHT31;55421;51.600;5.718;2022-10-26T00:08:42;12.43;81.22
68439;SHT31;55421;51.600;5.718;2022-10-26T00:11:11;12.42;81.24
68439;SHT31;55421;51.600;5.718;2022-10-26T00:13:38;12.41;81.32
68439;SHT31;55421;51.600;5.718;2022-10-26T00:16:12;12.41;81.40
68439;SHT31;55421;51.600;5.718;2022-10-26T00:18:43;12.42;81.40
68439;SHT31;55421;51.600;5.718;2022-10-26T00:21:10;12.42;81.44
68439;SHT31;55421;51.600;5.718;2022-10-26T00:23:37;12.43;81.46
68439;SHT31;55421;51.600;5.718;2022-10-26T00:26:04;12.44;81.50
68439;SHT31;55421;51.600;5.718;2022-10-26T00:28:32;12.46;81.55
68439;SHT31;55421;51.600;5.718;2022-10-26T00:31:02;12.49;81.50
68439;SHT31;55421;51.600;5.718;2022-10-26T00:33:40;12.50;81.52
68439;SHT31;55421;51.600;5.718;2022-10-26T00:36:07;12.52;81.60
68439;SHT31;55421;51.600;5.718;2022-10-26T00:38:35;12.54;81.60
68439;SHT31;55421;51.600;5.718;2022-10-26T00:41:02;12.55;81.60
68439;SHT31;55421;51.600;5.718;2022-10-26T00:45:56;12.56;81.70
68439;SHT31;55421;51.600;5.718;2022-10-26T00:48:28;12.56;81.77
68439;SHT31;55421;51.600;5.718;2022-10-26T00:51:12;12.58;81.78
68439;SHT31;55421;51.600;5.718;2022-10-26T00:53:58;12.58;81.80
68439;SHT31;55421;51.600;5.718;2022-10-26T00:56:29;12.57;81.81
68439;SHT31;55421;51.600;5.718;2022-10-26T00:58:59;12.56;81.87
68439;SHT31;55421;51.600;5.718;2022-10-26T01:01:33;12.54;81.91
68439;SHT31;55421;51.600;5.718;2022-10-26T01:04:04;12.51;82.00
68439;SHT31;55421;51.600;5.718;2022-10-26T01:06:31;12.49;82.12
68439;SHT31;55421;51.600;5.718;2022-10-26T01:09:02;12.49;82.21
68439;SHT31;55421;51.600;5.718;2022-10-26T01:11:30;12.49;82.25
68439;SHT31;55421;51.600;5.718;2022-10-26T01:13:57;12.47;82.32
68439;SHT31;55421;51.600;5.718;2022-10-26T01:16:32;12.46;82.41
68439;SHT31;55421;51.600;5.718;2022-10-26T01:19:25;12.45;82.51
68439;SHT31;55421;51.600;5.718;2022-10-26T01:25:11;12.45;82.67
68439;SHT31;55421;51.600;5.718;2022-10-26T01:28:04;12.45;82.72
68439;SHT31;55421;51.600;5.718;2022-10-26T01:30:59;12.47;82.80
68439;SHT31;55421;51.600;5.718;2022-10-26T01:33:31;12.49;82.80
68439;SHT31;55421;51.600;5.718;2022-10-26T01:36:09;12.50;82.80
68439;SHT31;55421;51.600;5.718;2022-10-26T01:39:04;12.53;82.75
68439;SHT31;55421;51.600;5.718;2022-10-26T01:41:49;12.55;82.71
68439;SHT31;55421;51.600;5.718;2022-10-26T01:44:24;12.56;82.69
68439;SHT31;55421;51.600;5.718;2022-10-26T01:46:58;12.56;82.68
68439;SHT31;55421;51.600;5.718;2022-10-26T01:49:27;12.58;82.61
68439;SHT31;55421;51.600;5.718;2022-10-26T01:52:01;12.57;82.60
68439;SHT31;55421;51.600;5.718;2022-10-26T01:54:28;12.56;82.61
68439;SHT31;55421;51.600;5.718;2022-10-26T01:56:55;12.56;82.60
68439;SHT31;55421;51.600;5.718;2022-10-26T02:05:58;12.56;82.69
68439;SHT31;55421;51.600;5.718;2022-10-26T02:08:44;12.58;82.70
68439;SHT31;55421;51.600;5.718;2022-10-26T02:11:37;12.60;82.64
68439;SHT31;55421;51.600;5.718;2022-10-26T02:16:52;12.60;82.67
68439;SHT31;55421;51.600;5.718;2022-10-26T02:22:23;12.59;82.72
68439;SHT31;55421;51.600;5.718;2022-10-26T02:25:03;12.59;82.74
68439;SHT31;55421;51.600;5.718;2022-10-26T02:27:40;12.58;82.79
68439;SHT31;55421;51.600;5.718;2022-10-26T02:30:15;12.56;82.80
68439;SHT31;55421;51.600;5.718;2022-10-26T02:32:44;12.56;82.81
68439;SHT31;55421;51.600;5.718;2022-10-26T02:35:15;12.53;82.81
68439;SHT31;55421;51.600;5.718;2022-10-26T02:37:47;12.51;82.86
68439;SHT31;55421;51.600;5.718;2022-10-26T02:40:19;12.48;82.87
68439;SHT31;55421;51.600;5.718;2022-10-26T02:42:51;12.43;82.96
68439;SHT31;55421;51.600;5.718;2022-10-26T02:45:29;12.42;83.09
68439;SHT31;55421;51.600;5.718;2022-10-26T02:48:01;12.41;83.14
68439;SHT31;55421;51.600;5.718;2022-10-26T02:50:32;12.39;83.22
68439;SHT31;55421;51.600;5.718;2022-10-26T02:56:09;12.42;83.37
68439;SHT31;55421;51.600;5.718;2022-10-26T02:58:46;12.42;83.30
68439;SHT31;55421;51.600;5.718;2022-10-26T03:01:18;12.44;83.33
68439;SHT31;55421;51.600;5.718;2022-10-26T03:03:45;12.45;83.30
68439;SHT31;55421;51.600;5.718;2022-10-26T03:06:11;12.46;83.32
68439;SHT31;55421;51.600;5.718;2022-10-26T03:08:46;12.47;83.30
68439;SHT31;55421;51.600;5.718;2022-10-26T03:11:12;12.48;83.30
68439;SHT31;55421;51.600;5.718;2022-10-26T03:13:38;12.49;83.30
68439;SHT31;55421;51.600;5.718;2022-10-26T03:16:05;12.51;83.31
68439;SHT31;55421;51.600;5.718;2022-10-26T03:18:32;12.51;83.30
68439;SHT31;55421;51.600;5.718;2022-10-26T03:20:58;12.52;83.31
68439;SHT31;55421;51.600;5.718;2022-10-26T03:23:24;12.53;83.30
68439;SHT31;55421;51.600;5.718;2022-10-26T03:25:54;12.54;83.30
68439;SHT31;55421;51.600;5.718;2022-10-26T03:28:23;12.54;83.30
68439;SHT31;55421;51.600;5.718;2022-10-26T03:30:49;12.54;83.30
68439;SHT31;55421;51.600;5.718;2022-10-26T03:33:16;12.54;83.30
68439;SHT31;55421;51.600;5.718;2022-10-26T03:35:43;12.53;83.30
68439;SHT31;55421;51.600;5.718;2022-10-26T03:38:09;12.55;83.31
68439;SHT31;55421;51.600;5.718;2022-10-26T03:40:36;12.55;83.30
68439;SHT31;55421;51.600;5.718;2022-10-26T03:43:02;12.54;83.30
68439;SHT31;55421;51.600;5.718;2022-10-26T03:45:29;12.53;83.39
68439;SHT31;55421;51.600;5.718;2022-10-26T03:47:55;12.55;83.43
68439;SHT31;55421;51.600;5.718;2022-10-26T03:50:22;12.54;83.46
68439;SHT31;55421;51.600;5.718;2022-10-26T03:52:48;12.56;83.50
68439;SHT31;55421;51.600;5.718;2022-10-26T03:55:15;12.57;83.50
68439;SHT31;55421;51.600;5.718;2022-10-26T03:57:42;12.58;83.51
68439;SHT31;55421;51.600;5.718;2022-10-26T04:00:11;12.58;83.56
68439;SHT31;55421;51.600;5.718;2022-10-26T04:02:44;12.59;83.59
68439;SHT31;55421;51.600;5.718;2022-10-26T04:05:19;12.60;83.60
68439;SHT31;55421;51.600;5.718;2022-10-26T04:07:52;12.60;83.61
68439;SHT31;55421;51.600;5.718;2022-10-26T04:10:19;12.58;83.69
68439;SHT31;55421;51.600;5.718;2022-10-26T04:12:46;12.59;83.77
68439;SHT31;55421;51.600;5.718;2022-10-26T04:15:13;12.60;83.81
68439;SHT31;55421;51.600;5.718;2022-10-26T04:17:40;12.60;83.84
68439;SHT31;55421;51.600;5.718;2022-10-26T04:20:07;12.59;83.87
68439;SHT31;55421;51.600;5.718;2022-10-26T04:22:34;12.60;83.91
68439;SHT31;55421;51.600;5.718;2022-10-26T04:25:02;12.59;83.95
68439;SHT31;55421;51.600;5.718;2022-10-26T04:27:30;12.61;84.00
68439;SHT31;55421;51.600;5.718;2022-10-26T04:29:56;12.61;83.99
68439;SHT31;55421;51.600;5.718;2022-10-26T04:32:23;12.60;84.00
68439;SHT31;55421;51.600;5.718;2022-10-26T04:34:50;12.60;84.00
68439;SHT31;55421;51.600;5.718;2022-10-26T04:37:19;12.61;84.06
68439;SHT31;55421;51.600;5.718;2022-10-26T04:39:46;12.62;84.07
68439;SHT31;55421;51.600;5.718;2022-10-26T04:42:12;12.64;84.10
68439;SHT31;55421;51.600;5.718;2022-10-26T04:44:38;12.64;84.10
68439;SHT31;55421;51.600;5.718;2022-10-26T04:47:05;12.63;84.10
68439;SHT31;55421;51.600;5.718;2022-10-26T04:49:31;12.64;84.09
68439;SHT31;55421;51.600;5.718;2022-10-26T04:51:58;12.65;84.10
68439;SHT31;55421;51.600;5.718;2022-10-26T04:54:24;12.65;84.10
68439;SHT31;55421;51.600;5.718;2022-10-26T04:56:50;12.67;84.10
68439;SHT31;55421;51.600;5.718;2022-10-26T04:59:17;12.67;84.13
68439;SHT31;55421;51.600;5.718;2022-10-26T05:01:43;12.68;84.19
68439;SHT31;55421;51.600;5.718;2022-10-26T05:04:10;12.69;84.20
68439;SHT31;55421;51.600;5.718;2022-10-26T05:06:36;12.69;84.22
68439;SHT31;55421;51.600;5.718;2022-10-26T05:09:03;12.70;84.30
68439;SHT31;55421;51.600;5.718;2022-10-26T05:11:29;12.71;84.32
68439;SHT31;55421;51.600;5.718;2022-10-26T05:13:55;12.75;84.39
68439;SHT31;55421;51.600;5.718;2022-10-26T05:16:22;12.78;84.40
68439;SHT31;55421;51.600;5.718;2022-10-26T05:18:48;12.81;84.40
68439;SHT31;55421;51.600;5.718;2022-10-26T05:21:15;12.84;84.40
68439;SHT31;55421;51.600;5.718;2022-10-26T05:23:48;12.87;84.40
68439;SHT31;55421;51.600;5.718;2022-10-26T05:26:19;12.89;84.40
68439;SHT31;55421;51.600;5.718;2022-10-26T05:28:49;12.91;84.39
68439;SHT31;55421;51.600;5.718;2022-10-26T05:31:16;12.93;84.37
68439;SHT31;55421;51.600;5.718;2022-10-26T05:33:43;12.94;84.39
68439;SHT31;55421;51.600;5.718;2022-10-26T05:36:09;12.97;84.34
68439;SHT31;55421;51.600;5.718;2022-10-26T05:38:36;12.99;84.30
68439;SHT31;55421;51.600;5.718;2022-10-26T05:41:02;13.01;84.30
68439;SHT31;55421;51.600;5.718;2022-10-26T05:43:28;13.03;84.30
68439;SHT31;55421;51.600;5.718;2022-10-26T05:45:55;13.04;84.24
68439;SHT31;55421;51.600;5.718;2022-10-26T05:48:21;13.06;84.20
68439;SHT31;55421;51.600;5.718;2022-10-26T05:50:48;13.06;84.22
68439;SHT31;55421;51.600;5.718;2022-10-26T05:53:15;13.08;84.20
68439;SHT31;55421;51.600;5.718;2022-10-26T05:55:42;13.09;84.20
68439;SHT31;55421;51.600;5.718;2022-10-26T05:58:09;13.11;84.20
68439;SHT31;55421;51.600;5.718;2022-10-26T06:01:29;13.12;84.17
68439;SHT31;55421;51.600;5.718;2022-10-26T06:06:49;13.15;84.11
68439;SHT31;55421;51.600;5.718;2022-10-26T06:09:20;13.18;84.12
68439;SHT31;55421;51.600;5.718;2022-10-26T06:11:47;13.21;84.10
68439;SHT31;55421;51.600;5.718;2022-10-26T06:14:14;13.23;84.00
68439;SHT31;55421;51.600;5.718;2022-10-26T06:16:47;13.22;84.00
68439;SHT31;55421;51.600;5.718;2022-10-26T06:30:46;13.34;83.76
68439;SHT31;55421;51.600;5.718;2022-10-26T06:33:12;13.34;83.77
68439;SHT31;55421;51.600;5.718;2022-10-26T06:35:43;13.35;83.74
68439;SHT31;55421;51.600;5.718;2022-10-26T06:38:26;13.36;83.70
68439;SHT31;55421;51.600;5.718;2022-10-26T06:40:57;13.36;83.70
68439;SHT31;55421;51.600;5.718;2022-10-26T06:43:25;13.34;83.70
68439;SHT31;55421;51.600;5.718;2022-10-26T06:49:05;13.33;83.72
68439;SHT31;55421;51.600;5.718;2022-10-26T06:51:46;13.33;83.60
68439;SHT31;55421;51.600;5.718;2022-10-26T06:55:06;13.30;83.60
68439;SHT31;55421;51.600;5.718;2022-10-26T06:57:24;13.29;83.60
68439;SHT31;55421;51.600;5.718;2022-10-26T07:00:00;13.27;83.59
68439;SHT31;55421;51.600;5.718;2022-10-26T07:02:43;13.28;83.58
68439;SHT31;55421;51.600;5.718;2022-10-26T07:05:10;13.28;83.53
68439;SHT31;55421;51.600;5.718;2022-10-26T07:07:44;13.28;83.50
68439;SHT31;55421;51.600;5.718;2022-10-26T07:10:12;13.26;83.52
68439;SHT31;55421;51.600;5.718;2022-10-26T07:12:40;13.26;83.58
68439;SHT31;55421;51.600;5.718;2022-10-26T07:15:07;13.28;83.59
68439;SHT31;55421;51.600;5.718;2022-10-26T07:17:46;13.30;83.64
68439;SHT31;55421;51.600;5.718;2022-10-26T07:20:15;13.33;83.68
68439;SHT31;55421;51.600;5.718;2022-10-26T07:22:50;13.38;83.70
68439;SHT31;55421;51.600;5.718;2022-10-26T07:25:22;13.42;83.71
68439;SHT31;55421;51.600;5.718;2022-10-26T07:27:50;13.46;83.66
68439;SHT31;55421;51.600;5.718;2022-10-26T07:30:17;13.49;83.60
68439;SHT31;55421;51.600;5.718;2022-10-26T07:32:43;13.54;83.54
68439;SHT31;55421;51.600;5.718;2022-10-26T07:35:10;13.63;83.53
68439;SHT31;55421;51.600;5.718;2022-10-26T07:37:36;13.73;83.50
68439;SHT31;55421;51.600;5.718;2022-10-26T07:40:03;13.84;83.46
68439;SHT31;55421;51.600;5.718;2022-10-26T07:42:31;13.93;83.32
68439;SHT31;55421;51.600;5.718;2022-10-26T07:44:57;14.03;83.28
68439;SHT31;55421;51.600;5.718;2022-10-26T07:47:23;14.10;83.20
68439;SHT31;55421;51.600;5.718;2022-10-26T07:49:50;14.18;83.14
68439;SHT31;55421;51.600;5.718;2022-10-26T07:52:16;14.27;83.02
68439;SHT31;55421;51.600;5.718;2022-10-26T07:54:43;14.36;82.86
68439;SHT31;55421;51.600;5.718;2022-10-26T07:57:09;14.46;82.76
68439;SHT31;55421;51.600;5.718;2022-10-26T07:59:35;14.55;82.63
68439;SHT31;55421;51.600;5.718;2022-10-26T08:02:02;14.62;82.51
68439;SHT31;55421;51.600;5.718;2022-10-26T08:04:28;14.70;82.37
68439;SHT31;55421;51.600;5.718;2022-10-26T08:06:54;14.76;82.26
68439;SHT31;55421;51.600;5.718;2022-10-26T08:09:21;14.82;82.08
68439;SHT31;55421;51.600;5.718;2022-10-26T08:11:47;14.90;82.00
68439;SHT31;55421;51.600;5.718;2022-10-26T08:14:14;14.95;81.88
68439;SHT31;55421;51.600;5.718;2022-10-26T08:16:40;14.97;81.76
68439;SHT31;55421;51.600;5.718;2022-10-26T08:19:07;14.95;81.65
68439;SHT31;55421;51.600;5.718;2022-10-26T08:21:33;14.94;81.60
68439;SHT31;55421;51.600;5.718;2022-10-26T08:24:00;15.00;81.60
68439;SHT31;55421;51.600;5.718;2022-10-26T08:26:26;15.03;81.51
68439;SHT31;55421;51.600;5.718;2022-10-26T08:28:54;15.03;81.53
68439;SHT31;55421;51.600;5.718;2022-10-26T08:31:20;15.08;81.50
68439;SHT31;55421;51.600;5.718;2022-10-26T08:33:46;15.14;81.43
68439;SHT31;55421;51.600;5.718;2022-10-26T08:36:13;15.23;81.40
68439;SHT31;55421;51.600;5.718;2022-10-26T08:38:48;15.33;81.36
68439;SHT31;55421;51.600;5.718;2022-10-26T08:41:14;15.46;81.37
68439;SHT31;55421;51.600;5.718;2022-10-26T08:43:42;15.59;81.22
68439;SHT31;55421;51.600;5.718;2022-10-26T08:46:24;15.73;81.08
68439;SHT31;55421;51.600;5.718;2022-10-26T08:49:03;15.83;80.82
68439;SHT31;55421;51.600;5.718;2022-10-26T08:51:48;15.97;80.72
68439;SHT31;55421;51.600;5.718;2022-10-26T08:57:15;16.11;80.53
68439;SHT31;55421;51.600;5.718;2022-10-26T09:00:03;16.16;80.32
68439;SHT31;55421;51.600;5.718;2022-10-26T09:02:40;16.24;80.32
68439;SHT31;55421;51.600;5.718;2022-10-26T09:05:13;16.29;80.20
68439;SHT31;55421;51.600;5.718;2022-10-26T09:11:19;16.42;80.07
68439;SHT31;55421;51.600;5.718;2022-10-26T09:20:21;16.66;79.61
68439;SHT31;55421;51.600;5.718;2022-10-26T09:23:24;16.75;79.43
68439;SHT31;55421;51.600;5.718;2022-10-26T09:26:12;16.86;79.51
68439;SHT31;55421;51.600;5.718;2022-10-26T09:28:43;16.94;79.36
68439;SHT31;55421;51.600;5.718;2022-10-26T09:31:14;17.02;79.11
68439;SHT31;55421;51.600;5.718;2022-10-26T09:33:42;17.09;79.10
68439;SHT31;55421;51.600;5.718;2022-10-26T09:36:10;17.19;79.18
68439;SHT31;55421;51.600;5.718;2022-10-26T09:38:54;17.27;79.04
68439;SHT31;55421;51.600;5.718;2022-10-26T09:41:36;17.36;78.76
68439;SHT31;55421;51.600;5.718;2022-10-26T09:44:33;17.44;78.55
68439;SHT31;55421;51.600;5.718;2022-10-26T09:49:53;17.61;78.44
68439;SHT31;55421;51.600;5.718;2022-10-26T09:52:27;17.70;78.31
68439;SHT31;55421;51.600;5.718;2022-10-26T09:54:53;17.77;77.89
68439;SHT31;55421;51.600;5.718;2022-10-26T09:57:19;17.84;77.96
68439;SHT31;55421;51.600;5.718;2022-10-26T09:59:46;17.91;77.87
68439;SHT31;55421;51.600;5.718;2022-10-26T10:02:34;17.95;77.75
68439;SHT31;55421;51.600;5.718;2022-10-26T10:05:19;18.02;77.77
68439;SHT31;55421;51.600;5.718;2022-10-26T10:08:08;18.05;77.75
68439;SHT31;55421;51.600;5.718;2022-10-26T10:10:36;18.11;77.67
68439;SHT31;55421;51.600;5.718;2022-10-26T10:13:22;18.12;77.34
68439;SHT31;55421;51.600;5.718;2022-10-26T10:16:02;18.20;77.25
68439;SHT31;55421;51.600;5.718;2022-10-26T10:18:38;18.27;77.04
68439;SHT31;55421;51.600;5.718;2022-10-26T10:21:07;18.33;77.09
68439;SHT31;55421;51.600;5.718;2022-10-26T10:23:36;18.42;76.96
68439;SHT31;55421;51.600;5.718;2022-10-26T10:26:14;18.51;76.79
68439;SHT31;55421;51.600;5.718;2022-10-26T10:28:41;18.57;76.61
68439;SHT31;55421;51.600;5.718;2022-10-26T10:31:21;18.62;76.52
68439;SHT31;55421;51.600;5.718;2022-10-26T10:34:03;18.65;76.32
68439;SHT31;55421;51.600;5.718;2022-10-26T10:36:41;18.69;76.36
68439;SHT31;55421;51.600;5.718;2022-10-26T10:39:30;18.74;76.41
68439;SHT31;55421;51.600;5.718;2022-10-26T10:42:02;18.78;76.38
68439;SHT31;55421;51.600;5.718;2022-10-26T10:44:43;18.79;76.14
68439;SHT31;55421;51.600;5.718;2022-10-26T10:47:30;18.78;75.95
68439;SHT31;55421;51.600;5.718;2022-10-26T10:50:01;18.77;75.81
68439;SHT31;55421;51.600;5.718;2022-10-26T10:52:36;18.79;75.95
68439;SHT31;55421;51.600;5.718;2022-10-26T10:57:55;18.88;75.95
68439;SHT31;55421;51.600;5.718;2022-10-26T11:00:47;18.91;75.71
68439;SHT31;55421;51.600;5.718;2022-10-26T11:03:22;18.95;75.56
68439;SHT31;55421;51.600;5.718;2022-10-26T11:06:12;18.99;75.71
68439;SHT31;55421;51.600;5.718;2022-10-26T11:08:52;19.06;75.87
68439;SHT31;55421;51.600;5.718;2022-10-26T11:14:44;19.19;75.83
68439;SHT31;55421;51.600;5.718;2022-10-26T11:17:23;19.19;75.32
68439;SHT31;55421;51.600;5.718;2022-10-26T11:20:03;19.18;75.10
68439;SHT31;55421;51.600;5.718;2022-10-26T11:22:39;19.20;75.23
68439;SHT31;55421;51.600;5.718;2022-10-26T11:25:24;19.23;75.26
68439;SHT31;55421;51.600;5.718;2022-10-26T11:30:46;19.31;75.38
68439;SHT31;55421;51.600;5.718;2022-10-26T11:36:06;19.27;75.19
68439;SHT31;55421;51.600;5.718;2022-10-26T11:38:43;19.27;75.08
68439;SHT31;55421;51.600;5.718;2022-10-26T11:41:34;19.24;75.09
68439;SHT31;55421;51.600;5.718;2022-10-26T11:47:13;19.22;75.37
68439;SHT31;55421;51.600;5.718;2022-10-26T11:52:45;19.45;75.29
68439;SHT31;55421;51.600;5.718;2022-10-26T11:55:25;19.58;75.36
68439;SHT31;55421;51.600;5.718;2022-10-26T11:57:53;19.66;75.26
68439;SHT31;55421;51.600;5.718;2022-10-26T12:00:21;19.68;75.08
68439;SHT31;55421;51.600;5.718;2022-10-26T12:02:54;19.68;75.13
68439;SHT31;55421;51.600;5.718;2022-10-26T12:07:59;19.65;75.39
68439;SHT31;55421;51.600;5.718;2022-10-26T12:10:32;19.63;75.33
68439;SHT31;55421;51.600;5.718;2022-10-26T12:19:11;19.53;74.90
68439;SHT31;55421;51.600;5.718;2022-10-26T12:21:49;19.52;74.99
68439;SHT31;55421;51.600;5.718;2022-10-26T12:24:24;19.51;74.93
68439;SHT31;55421;51.600;5.718;2022-10-26T12:27:01;19.50;74.73
68439;SHT31;55421;51.600;5.718;2022-10-26T12:41:24;19.52;74.87
68439;SHT31;55421;51.600;5.718;2022-10-26T12:43:46;19.53;74.39
68439;SHT31;55421;51.600;5.718;2022-10-26T12:52:02;19.61;74.28
68439;SHT31;55421;51.600;5.718;2022-10-26T12:54:23;19.61;74.20
68439;SHT31;55421;51.600;5.718;2022-10-26T13:00:21;19.62;74.13
68439;SHT31;55421;51.600;5.718;2022-10-26T13:02:57;19.63;74.14
68439;SHT31;55421;51.600;5.718;2022-10-26T13:08:24;19.73;73.97
68439;SHT31;55421;51.600;5.718;2022-10-26T13:11:00;19.77;73.91
68439;SHT31;55421;51.600;5.718;2022-10-26T13:13:32;19.81;74.01
68439;SHT31;55421;51.600;5.718;2022-10-26T13:16:00;19.87;73.79
68439;SHT31;55421;51.600;5.718;2022-10-26T13:18:28;19.90;73.66
68439;SHT31;55421;51.600;5.718;2022-10-26T13:21:11;19.95;73.43
68439;SHT31;55421;51.600;5.718;2022-10-26T13:23:43;19.98;73.21
68439;SHT31;55421;51.600;5.718;2022-10-26T13:26:24;20.02;73.27
68439;SHT31;55421;51.600;5.718;2022-10-26T13:28:59;20.04;73.21
68439;SHT31;55421;51.600;5.718;2022-10-26T13:34:04;20.11;73.23
68439;SHT31;55421;51.600;5.718;2022-10-26T13:39:48;20.17;72.75
68439;SHT31;55421;51.600;5.718;2022-10-26T13:42:23;20.20;72.86
68439;SHT31;55421;51.600;5.718;2022-10-26T13:45:00;20.22;72.89
68439;SHT31;55421;51.600;5.718;2022-10-26T13:50:27;20.26;72.79
68439;SHT31;55421;51.600;5.718;2022-10-26T13:53:15;20.29;72.81
68439;SHT31;55421;51.600;5.718;2022-10-26T13:55:58;20.31;72.59
68439;SHT31;55421;51.600;5.718;2022-10-26T13:58:35;20.33;72.18
68439;SHT31;55421;51.600;5.718;2022-10-26T14:01:12;20.32;71.97
68439;SHT31;55421;51.600;5.718;2022-10-26T14:03:43;20.28;71.88
68439;SHT31;55421;51.600;5.718;2022-10-26T14:06:13;20.25;71.85
68439;SHT31;55421;51.600;5.718;2022-10-26T14:08:44;20.24;71.86
68439;SHT31;55421;51.600;5.718;2022-10-26T14:11:16;20.23;71.65
68439;SHT31;55421;51.600;5.718;2022-10-26T14:13:47;20.24;71.61
68439;SHT31;55421;51.600;5.718;2022-10-26T14:16:16;20.25;71.43
68439;SHT31;55421;51.600;5.718;2022-10-26T14:18:47;20.25;71.35
68439;SHT31;55421;51.600;5.718;2022-10-26T14:21:15;20.25;71.22
68439;SHT31;55421;51.600;5.718;2022-10-26T14:23:53;20.25;71.22
68439;SHT31;55421;51.600;5.718;2022-10-26T14:26:26;20.24;71.11
68439;SHT31;55421;51.600;5.718;2022-10-26T14:29:03;20.23;71.06
68439;SHT31;55421;51.600;5.718;2022-10-26T14:31:42;20.20;71.15
68439;SHT31;55421;51.600;5.718;2022-10-26T14:34:09;20.20;71.22
68439;SHT31;55421;51.600;5.718;2022-10-26T14:36:39;20.17;71.14
68439;SHT31;55421;51.600;5.718;2022-10-26T14:39:17;20.15;70.79
68439;SHT31;55421;51.600;5.718;2022-10-26T14:44:54;20.13;70.25
68439;SHT31;55421;51.600;5.718;2022-10-26T14:47:23;20.11;70.27
68439;SHT31;55421;51.600;5.718;2022-10-26T14:49:52;20.09;70.30
68439;SHT31;55421;51.600;5.718;2022-10-26T14:52:38;20.05;70.31
68439;SHT31;55421;51.600;5.718;2022-10-26T14:55:14;19.99;70.34
68439;SHT31;55421;51.600;5.718;2022-10-26T14:57:42;19.98;70.41
68439;SHT31;55421;51.600;5.718;2022-10-26T15:00:13;19.95;70.49
68439;SHT31;55421;51.600;5.718;2022-10-26T15:02:45;19.94;70.66
68439;SHT31;55421;51.600;5.718;2022-10-26T15:07:50;19.92;70.80
68439;SHT31;55421;51.600;5.718;2022-10-26T15:13:19;19.85;70.91
68439;SHT31;55421;51.600;5.718;2022-10-26T15:16:17;19.79;71.01
68439;SHT31;55421;51.600;5.718;2022-10-26T15:18:51;19.73;71.25
68439;SHT31;55421;51.600;5.718;2022-10-26T15:21:29;19.67;71.44
68439;SHT31;55421;51.600;5.718;2022-10-26T15:24:00;19.62;71.57
68439;SHT31;55421;51.600;5.718;2022-10-26T15:26:28;19.57;71.69
68439;SHT31;55421;51.600;5.718;2022-10-26T15:28:55;19.53;71.84
68439;SHT31;55421;51.600;5.718;2022-10-26T15:31:24;19.50;71.89
68439;SHT31;55421;51.600;5.718;2022-10-26T15:36:26;19.42;72.10
68439;SHT31;55421;51.600;5.718;2022-10-26T15:38:53;19.36;72.09
68439;SHT31;55421;51.600;5.718;2022-10-26T15:41:21;19.34;72.03
68439;SHT31;55421;51.600;5.718;2022-10-26T15:43:54;19.30;71.90
68439;SHT31;55421;51.600;5.718;2022-10-26T15:46:24;19.27;71.87
68439;SHT31;55421;51.600;5.718;2022-10-26T15:48:59;19.25;71.83
68439;SHT31;55421;51.600;5.718;2022-10-26T15:51:30;19.23;71.70
68439;SHT31;55421;51.600;5.718;2022-10-26T15:53:57;19.22;71.87
68439;SHT31;55421;51.600;5.718;2022-10-26T15:56:26;19.20;71.96
68439;SHT31;55421;51.600;5.718;2022-10-26T15:58:53;19.18;72.11
68439;SHT31;55421;51.600;5.718;2022-10-26T16:01:22;19.15;72.09
68439;SHT31;55421;51.600;5.718;2022-10-26T16:03:52;19.11;72.14
68439;SHT31;55421;51.600;5.718;2022-10-26T16:06:23;19.07;72.25
68439;SHT31;55421;51.600;5.718;2022-10-26T16:08:56;19.02;72.36
68439;SHT31;55421;51.600;5.718;2022-10-26T16:11:25;19.00;72.50
68439;SHT31;55421;51.600;5.718;2022-10-26T16:13:52;18.97;72.61
68439;SHT31;55421;51.600;5.718;2022-10-26T16:16:19;18.95;72.70
68439;SHT31;55421;51.600;5.718;2022-10-26T16:18:48;18.92;72.79
68439;SHT31;55421;51.600;5.718;2022-10-26T16:21:22;18.89;72.93
68439;SHT31;55421;51.600;5.718;2022-10-26T16:23:53;18.84;73.02
68439;SHT31;55421;51.600;5.718;2022-10-26T16:26:22;18.81;73.12
68439;SHT31;55421;51.600;5.718;2022-10-26T16:28:49;18.78;73.24
68439;SHT31;55421;51.600;5.718;2022-10-26T16:31:17;18.75;73.35
68439;SHT31;55421;51.600;5.718;2022-10-26T16:33:46;18.74;73.45
68439;SHT31;55421;51.600;5.718;2022-10-26T16:36:13;18.72;73.52
68439;SHT31;55421;51.600;5.718;2022-10-26T16:38:40;18.70;73.63
68439;SHT31;55421;51.600;5.718;2022-10-26T16:41:07;18.68;73.70
68439;SHT31;55421;51.600;5.718;2022-10-26T16:43:44;18.64;73.74
68439;SHT31;55421;51.600;5.718;2022-10-26T16:46:15;18.61;73.84
68439;SHT31;55421;51.600;5.718;2022-10-26T16:48:45;18.57;73.93
68439;SHT31;55421;51.600;5.718;2022-10-26T16:51:13;18.52;74.00
68439;SHT31;55421;51.600;5.718;2022-10-26T16:53:49;18.48;74.10
68439;SHT31;55421;51.600;5.718;2022-10-26T16:56:19;18.43;74.18
68439;SHT31;55421;51.600;5.718;2022-10-26T16:58:49;18.41;74.24
68439;SHT31;55421;51.600;5.718;2022-10-26T17:01:16;18.39;74.31
68439;SHT31;55421;51.600;5.718;2022-10-26T17:03:45;18.35;74.36
68439;SHT31;55421;51.600;5.718;2022-10-26T17:06:14;18.35;74.44
68439;SHT31;55421;51.600;5.718;2022-10-26T17:08:42;18.32;74.50
68439;SHT31;55421;51.600;5.718;2022-10-26T17:11:10;18.30;74.58
68439;SHT31;55421;51.600;5.718;2022-10-26T17:13:43;18.28;74.64
68439;SHT31;55421;51.600;5.718;2022-10-26T17:16:17;18.26;74.72
68439;SHT31;55421;51.600;5.718;2022-10-26T17:18:46;18.24;74.80
68439;SHT31;55421;51.600;5.718;2022-10-26T17:21:16;18.18;74.87
68439;SHT31;55421;51.600;5.718;2022-10-26T17:23:45;18.13;75.00
68439;SHT31;55421;51.600;5.718;2022-10-26T17:26:12;18.07;75.09
68439;SHT31;55421;51.600;5.718;2022-10-26T17:28:40;18.01;75.18
68439;SHT31;55421;51.600;5.718;2022-10-26T17:31:13;17.94;75.23
68439;SHT31;55421;51.600;5.718;2022-10-26T17:33:41;17.90;75.30
68439;SHT31;55421;51.600;5.718;2022-10-26T17:36:09;17.84;75.42
68439;SHT31;55421;51.600;5.718;2022-10-26T17:38:40;17.77;75.54
68439;SHT31;55421;51.600;5.718;2022-10-26T17:41:11;17.72;75.70
68439;SHT31;55421;51.600;5.718;2022-10-26T17:43:40;17.68;75.79
68439;SHT31;55421;51.600;5.718;2022-10-26T17:46:12;17.64;75.96
68439;SHT31;55421;51.600;5.718;2022-10-26T17:48:43;17.60;76.08
68439;SHT31;55421;51.600;5.718;2022-10-26T17:51:12;17.60;76.21
68439;SHT31;55421;51.600;5.718;2022-10-26T17:53:47;17.58;76.29
68439;SHT31;55421;51.600;5.718;2022-10-26T17:56:16;17.57;76.33
68439;SHT31;55421;51.600;5.718;2022-10-26T17:58:51;17.56;76.38
68439;SHT31;55421;51.600;5.718;2022-10-26T18:01:20;17.54;76.44
68439;SHT31;55421;51.600;5.718;2022-10-26T18:03:47;17.52;76.51
68439;SHT31;55421;51.600;5.718;2022-10-26T18:06:13;17.51;76.54